createdAt,value
2023-04-19T00:02:51.255Z,4.73
2023-04-19T00:05:51.167Z,4.73
2023-04-19T00:08:51.183Z,4.74
2023-04-19T00:11:51.188Z,4.76
2023-04-19T00:14:51.186Z,4.74
2023-04-19T00:17:51.228Z,4.75
2023-04-19T00:20:51.200Z,4.77
2023-04-19T00:23:51.198Z,4.75
2023-04-19T00:26:51.195Z,4.78
2023-04-19T00:29:51.208Z,4.78
2023-04-19T00:32:51.285Z,4.78
2023-04-19T00:35:51.218Z,4.79
2023-04-19T00:38:51.216Z,4.78
2023-04-19T00:41:51.222Z,4.77
2023-04-19T00:44:51.229Z,4.77
2023-04-19T00:47:51.267Z,4.79
2023-04-19T00:50:51.234Z,4.77
2023-04-19T00:53:51.237Z,4.77
2023-04-19T00:56:51.243Z,4.79
2023-04-19T00:59:51.254Z,4.76
2023-04-19T01:02:51.312Z,4.77
2023-04-19T01:05:51.247Z,4.79
2023-04-19T01:08:51.254Z,4.8
2023-04-19T01:11:51.255Z,4.8
2023-04-19T01:14:51.263Z,4.81
2023-04-19T01:17:51.376Z,4.82
2023-04-19T01:20:51.270Z,4.82
2023-04-19T01:23:51.275Z,4.8
2023-04-19T01:26:51.281Z,4.83
2023-04-19T01:29:51.289Z,4.83
2023-04-19T01:32:51.319Z,4.81
2023-04-19T01:35:51.304Z,4.85
2023-04-19T01:38:51.299Z,4.87
2023-04-19T01:41:51.306Z,4.85
2023-04-19T01:44:51.307Z,4.83
2023-04-19T01:47:51.348Z,4.84
2023-04-19T01:50:51.314Z,4.84
2023-04-19T01:53:51.322Z,4.84
2023-04-19T01:56:51.326Z,4.87
2023-04-19T01:59:51.330Z,4.86
2023-04-19T02:02:51.425Z,4.86
2023-04-19T02:05:51.333Z,4.84
2023-04-19T02:08:51.324Z,4.85
2023-04-19T02:11:51.328Z,4.88
2023-04-19T02:14:51.341Z,4.84
2023-04-19T02:17:51.370Z,4.86
2023-04-19T02:20:51.349Z,4.84
2023-04-19T02:23:51.341Z,4.87
2023-04-19T02:26:51.352Z,4.85
2023-04-19T02:29:51.347Z,4.83
2023-04-19T02:32:51.387Z,4.83
2023-04-19T02:35:51.382Z,4.84
2023-04-19T02:38:51.378Z,4.83
2023-04-19T02:41:51.385Z,4.85
2023-04-19T02:44:51.393Z,4.83
2023-04-19T02:47:51.421Z,4.84
2023-04-19T02:50:51.414Z,4.82
2023-04-19T02:53:51.410Z,4.79
2023-04-19T02:56:51.418Z,4.81
2023-04-19T02:59:51.417Z,4.82
2023-04-19T03:02:51.511Z,4.82
2023-04-19T03:05:51.438Z,4.83
2023-04-19T03:08:51.439Z,4.83
2023-04-19T03:11:51.440Z,4.85
2023-04-19T03:14:51.441Z,4.81
2023-04-19T03:17:51.474Z,4.82
2023-04-19T03:20:51.457Z,4.8
2023-04-19T03:23:51.458Z,4.82
2023-04-19T03:26:51.460Z,4.8
2023-04-19T03:29:51.455Z,4.83
2023-04-19T03:32:51.501Z,4.83
2023-04-19T03:35:51.468Z,4.83
2023-04-19T03:38:51.467Z,4.82
2023-04-19T03:41:51.483Z,4.82
2023-04-19T03:44:51.473Z,4.84
2023-04-19T03:47:51.511Z,4.81
2023-04-19T03:50:51.564Z,4.8
2023-04-19T03:53:51.478Z,4.81
2023-04-19T03:56:51.486Z,4.82
2023-04-19T03:59:51.488Z,4.84
2023-04-19T04:02:51.650Z,4.82
2023-04-19T04:05:51.482Z,4.84
2023-04-19T04:08:51.493Z,4.81
2023-04-19T04:11:51.499Z,4.82
2023-04-19T04:14:51.502Z,4.82
2023-04-19T04:17:51.542Z,4.83
2023-04-19T04:20:51.516Z,4.82
2023-04-19T04:23:51.515Z,4.85
2023-04-19T04:26:51.538Z,4.86
2023-04-19T04:29:51.547Z,4.84
2023-04-19T04:32:51.617Z,4.85
2023-04-19T04:35:51.564Z,4.87
2023-04-19T04:38:51.566Z,4.9
2023-04-19T04:41:51.577Z,4.92
2023-04-19T04:44:51.580Z,4.94
2023-04-19T04:47:51.786Z,4.92
2023-04-19T04:50:51.585Z,4.98
2023-04-19T04:53:51.590Z,4.96
2023-04-19T04:56:51.639Z,4.98
2023-04-19T04:59:51.597Z,4.98
2023-04-19T05:02:51.681Z,4.98
2023-04-19T05:05:51.605Z,5.01
2023-04-19T05:08:51.614Z,5.01
2023-04-19T05:11:51.757Z,5.01
2023-04-19T05:14:51.622Z,5.01
2023-04-19T05:17:51.676Z,5.04
2023-04-19T05:20:51.630Z,5.06
2023-04-19T05:23:51.643Z,5.05
2023-04-19T05:26:51.653Z,5.05
2023-04-19T05:29:51.649Z,5.07
2023-04-19T05:32:51.715Z,5.05
2023-04-19T05:35:51.651Z,5.06
2023-04-19T05:38:51.669Z,5.09
2023-04-19T05:41:51.663Z,5.09
2023-04-19T05:44:51.674Z,5.14
2023-04-19T05:47:51.767Z,5.16
2023-04-19T05:50:51.683Z,5.23
2023-04-19T05:53:51.686Z,5.29
2023-04-19T05:56:51.757Z,5.37
2023-04-19T05:59:51.710Z,5.37
2023-04-19T06:02:51.875Z,5.4
2023-04-19T06:05:51.707Z,5.49
2023-04-19T06:08:54.071Z,5.52
2023-04-19T06:11:52.029Z,5.49
2023-04-19T06:14:51.717Z,5.52
2023-04-19T06:17:51.835Z,5.47
2023-04-19T06:20:51.723Z,5.51
2023-04-19T06:23:51.736Z,5.52
2023-04-19T06:26:51.745Z,5.47
2023-04-19T06:29:51.755Z,5.46
2023-04-19T06:32:51.782Z,5.48
2023-04-19T06:35:51.755Z,5.5
2023-04-19T06:38:51.764Z,5.48
2023-04-19T06:41:51.769Z,5.51
2023-04-19T06:44:51.771Z,5.54
2023-04-19T06:47:51.825Z,5.51
2023-04-19T06:50:51.780Z,5.52
2023-04-19T06:53:51.783Z,5.45
2023-04-19T06:56:51.792Z,5.53
2023-04-19T06:59:51.974Z,5.5
2023-04-19T07:02:51.843Z,5.39
2023-04-19T07:05:51.814Z,5.43
2023-04-19T07:08:51.804Z,5.22
2023-04-19T07:11:51.803Z,5.25
2023-04-19T07:14:51.806Z,5.26
2023-04-19T07:17:51.853Z,5.21
2023-04-19T07:20:51.822Z,5.21
2023-04-19T07:23:51.822Z,5.33
2023-04-19T07:26:51.828Z,5.24
2023-04-19T07:29:51.838Z,5.24
2023-04-19T07:32:52.026Z,5.11
2023-04-19T07:35:51.847Z,5.18
2023-04-19T07:38:51.844Z,5.16
2023-04-19T07:41:51.851Z,4.99
2023-04-19T07:44:51.848Z,4.93
2023-04-19T07:47:51.909Z,4.99
2023-04-19T07:50:51.863Z,4.79
2023-04-19T07:53:51.859Z,4.97
2023-04-19T07:56:51.876Z,4.96
2023-04-19T07:59:51.894Z,5.03
2023-04-19T08:02:52.164Z,4.83
2023-04-19T08:05:51.924Z,4.93
2023-04-19T08:08:51.890Z,4.96
2023-04-19T08:11:51.900Z,4.95
2023-04-19T08:15:01.750Z,5.03
2023-04-19T08:17:51.946Z,4.96
2023-04-19T08:20:51.900Z,4.86
2023-04-19T08:23:54.228Z,4.84
2023-04-19T08:26:51.905Z,5.13
2023-04-19T08:29:51.918Z,5.13
2023-04-19T08:32:52.437Z,5.12
2023-04-19T08:35:51.933Z,5.08
2023-04-19T08:39:02.331Z,5.18
2023-04-19T08:41:59.291Z,5.17
2023-04-19T08:45:06.130Z,5.19
2023-04-19T08:48:00.443Z,5.04
2023-04-19T08:51:01.155Z,4.97
2023-04-19T08:53:51.964Z,5.04
2023-04-19T08:56:51.964Z,4.93
2023-04-19T08:59:51.969Z,4.96
2023-04-19T09:02:52.169Z,5.04
2023-04-19T09:05:52.217Z,4.95
2023-04-19T09:08:51.969Z,5
2023-04-19T09:11:51.978Z,4.96
2023-04-19T09:17:52.030Z,4.99
2023-04-19T09:20:51.994Z,4.86
2023-04-19T09:23:51.994Z,4.88
2023-04-19T09:26:52.003Z,4.92
2023-04-19T09:29:52.021Z,4.71
2023-04-19T09:32:52.099Z,4.48
2023-04-19T09:35:52.022Z,4.36
2023-04-19T09:38:52.013Z,4.15
2023-04-19T09:41:52.030Z,4.02
2023-04-19T09:47:52.058Z,3.98
2023-04-19T09:50:57.293Z,4.05
2023-04-19T09:53:52.039Z,3.87
2023-04-19T09:56:52.417Z,3.83
2023-04-19T09:59:52.049Z,3.75
2023-04-19T10:02:52.437Z,4.01
2023-04-19T10:05:52.115Z,4.06
2023-04-19T10:08:52.072Z,3.8
2023-04-19T10:11:54.396Z,3.76
2023-04-19T10:14:52.077Z,3.93
2023-04-19T10:17:52.104Z,4.01
2023-04-19T10:20:52.087Z,4.05
2023-04-19T10:23:52.117Z,3.94
2023-04-19T10:26:52.092Z,3.68
2023-04-19T10:29:52.110Z,3.83
2023-04-19T10:32:52.151Z,3.87
2023-04-19T10:35:52.112Z,4.15
2023-04-19T10:38:52.132Z,4.08
2023-04-19T10:41:52.121Z,4.11
2023-04-19T10:44:52.130Z,4.26
2023-04-19T10:47:52.173Z,4.14
2023-04-19T10:50:52.141Z,4.14
2023-04-19T10:53:52.146Z,3.91
2023-04-19T10:56:52.145Z,3.91
2023-04-19T10:59:52.152Z,3.92
2023-04-19T11:02:52.273Z,4.14
2023-04-19T11:05:52.160Z,4.13
2023-04-19T11:08:52.162Z,4.1
2023-04-19T11:11:52.168Z,4.05
2023-04-19T11:14:52.159Z,3.91
2023-04-19T11:17:57.956Z,3.97
2023-04-19T11:20:52.166Z,4
2023-04-19T11:23:52.174Z,3.92
2023-04-19T11:26:54.132Z,3.98
2023-04-19T11:29:52.184Z,4.03
2023-04-19T11:32:52.220Z,3.94
2023-04-19T11:35:52.184Z,4.01
2023-04-19T11:38:52.195Z,4.06
2023-04-19T11:41:52.201Z,4.27
2023-04-19T11:44:52.201Z,4.15
2023-04-19T11:47:52.232Z,4.31
2023-04-19T11:50:52.216Z,4.36
2023-04-19T11:53:52.218Z,4.25
2023-04-19T11:56:52.223Z,4.19
2023-04-19T11:59:52.231Z,4.43
2023-04-19T12:02:52.425Z,4.33
2023-04-19T12:05:52.229Z,4.29
2023-04-19T12:08:52.249Z,4.36
2023-04-19T12:11:52.243Z,4.33
2023-04-19T12:14:52.256Z,4.28
2023-04-19T12:17:57.132Z,4.32
2023-04-19T12:20:52.255Z,4.2
2023-04-19T12:23:52.263Z,4.49
2023-04-19T12:26:53.924Z,4.4
2023-04-19T12:29:52.275Z,4.27
2023-04-19T12:32:52.306Z,4.31
2023-04-19T12:35:52.262Z,4.28
2023-04-19T12:38:52.297Z,4.29
2023-04-19T12:41:52.298Z,4.2
2023-04-19T12:44:52.291Z,4.4
2023-04-19T12:47:52.370Z,4.29
2023-04-19T12:50:52.289Z,4.31
2023-04-19T12:53:52.296Z,4.38
2023-04-19T12:56:52.305Z,4.32
2023-04-19T12:59:52.319Z,4.33
2023-04-19T13:02:52.466Z,4.42
2023-04-19T13:05:52.310Z,4.5
2023-04-19T13:08:52.958Z,4.58
2023-04-19T13:11:52.325Z,4.73
2023-04-19T13:14:52.653Z,4.49
2023-04-19T13:17:52.336Z,4.52
2023-04-19T13:20:52.338Z,4.4
2023-04-19T13:23:52.348Z,4.41
2023-04-19T13:26:52.477Z,4.51
2023-04-19T13:29:52.363Z,4.67
2023-04-19T13:32:52.381Z,4.44
2023-04-19T13:35:52.387Z,4.46
2023-04-19T13:38:52.383Z,4.46
2023-04-19T13:41:52.380Z,4.32
2023-04-19T13:44:52.387Z,4.35
2023-04-19T13:47:52.401Z,4.31
2023-04-19T13:50:52.403Z,4.22
2023-04-19T13:53:52.400Z,4.32
2023-04-19T13:56:52.631Z,4.31
2023-04-19T13:59:52.408Z,4.35
2023-04-19T14:02:52.759Z,4.36
2023-04-19T14:05:52.424Z,4.52
2023-04-19T14:08:52.410Z,4.58
2023-04-19T14:11:52.429Z,4.44
2023-04-19T14:14:52.423Z,4.58
2023-04-19T14:17:52.490Z,4.39
2023-04-19T14:20:52.428Z,4.23
2023-04-19T14:23:52.435Z,4.36
2023-04-19T14:27:03.442Z,4.51
2023-04-19T14:29:52.441Z,4.61
2023-04-19T14:32:52.628Z,4.22
2023-04-19T14:35:52.436Z,4.11
2023-04-19T14:38:52.443Z,4.17
2023-04-19T14:41:52.443Z,4.22
2023-04-19T14:44:52.552Z,4.2
2023-04-19T14:47:52.497Z,4.21
2023-04-19T14:50:52.446Z,4.17
2023-04-19T14:53:52.447Z,4.28
2023-04-19T14:56:52.456Z,4.18
2023-04-19T14:59:52.447Z,4.29
2023-04-19T15:02:52.554Z,4.27
2023-04-19T15:05:52.624Z,4.12
2023-04-19T15:08:52.461Z,4.14
2023-04-19T15:11:52.450Z,4.17
2023-04-19T15:14:52.462Z,4.12
2023-04-19T15:17:52.482Z,4.03
2023-04-19T15:20:52.454Z,3.93
2023-04-19T15:23:52.465Z,3.8
2023-04-19T15:26:52.469Z,3.91
2023-04-19T15:29:52.469Z,3.8
2023-04-19T15:32:52.539Z,3.66
2023-04-19T15:35:52.461Z,3.74
2023-04-19T15:38:52.464Z,3.61
2023-04-19T15:41:52.469Z,3.73
2023-04-19T15:44:52.480Z,3.74
2023-04-19T15:47:52.480Z,3.77
2023-04-19T15:50:52.471Z,3.71
2023-04-19T15:53:52.481Z,3.73
2023-04-19T15:56:52.479Z,3.83
2023-04-19T15:59:52.478Z,3.79
2023-04-19T16:02:52.539Z,3.86
2023-04-19T16:05:52.483Z,3.82
2023-04-19T16:08:52.490Z,3.73
2023-04-19T16:11:52.501Z,3.71
2023-04-19T16:14:52.520Z,3.76
2023-04-19T16:17:52.528Z,3.8
2023-04-19T16:20:52.495Z,3.8
2023-04-19T16:23:52.490Z,3.8
2023-04-19T16:26:52.507Z,3.83
2023-04-19T16:29:52.502Z,3.76
2023-04-19T16:32:52.530Z,3.74
2023-04-19T16:35:52.495Z,3.72
2023-04-19T16:38:52.525Z,3.76
2023-04-19T16:41:52.490Z,3.71
2023-04-19T16:44:52.513Z,3.65
2023-04-19T16:47:52.530Z,3.62
2023-04-19T16:50:52.528Z,3.63
2023-04-19T16:53:52.519Z,3.62
2023-04-19T16:56:52.518Z,3.59
2023-04-19T16:59:52.533Z,3.64
2023-04-19T17:02:52.582Z,3.62
2023-04-19T17:05:52.543Z,3.58
2023-04-19T17:08:52.554Z,3.58
2023-04-19T17:11:52.542Z,3.64
2023-04-19T17:14:52.550Z,3.68
2023-04-19T17:17:52.587Z,3.66
2023-04-19T17:20:52.548Z,3.61
2023-04-19T17:23:52.552Z,3.65
2023-04-19T17:26:52.553Z,3.69
2023-04-19T17:29:52.550Z,3.7
2023-04-19T17:32:52.617Z,3.74
2023-04-19T17:35:52.576Z,3.73
2023-04-19T17:38:52.563Z,3.77
2023-04-19T17:41:52.566Z,3.87
2023-04-19T17:44:52.566Z,3.86
2023-04-19T17:47:54.549Z,3.89
2023-04-19T17:50:52.583Z,3.91
2023-04-19T17:53:52.574Z,3.95
2023-04-19T17:56:52.664Z,4.02
2023-04-19T17:59:52.595Z,4.05
2023-04-19T18:02:52.735Z,4.01
2023-04-19T18:05:52.591Z,4.12
2023-04-19T18:08:52.624Z,4.29
2023-04-19T18:11:52.612Z,4.27
2023-04-19T18:14:52.610Z,4.37
2023-04-19T18:17:52.685Z,4.49
2023-04-19T18:20:52.613Z,4.62
2023-04-19T18:23:52.621Z,4.67
2023-04-19T18:26:52.628Z,4.86
2023-04-19T18:29:52.632Z,5
2023-04-19T18:32:52.651Z,4.99
2023-04-19T18:35:52.625Z,5.07
2023-04-19T18:38:52.638Z,5.22
2023-04-19T18:41:52.636Z,5.25
2023-04-19T18:44:54.046Z,5.4
2023-04-19T18:47:52.745Z,5.54
2023-04-19T18:50:52.643Z,5.55
2023-04-19T18:53:52.650Z,5.64
2023-04-19T18:57:18.895Z,5.75
2023-04-19T18:59:52.654Z,5.77
2023-04-19T19:02:53.118Z,5.77
2023-04-19T19:05:52.759Z,5.76
2023-04-19T19:08:52.678Z,5.82
2023-04-19T19:11:56.334Z,5.76
2023-04-19T19:14:52.683Z,5.82
2023-04-19T19:17:52.745Z,5.8
2023-04-19T19:20:52.708Z,5.82
2023-04-19T19:23:52.729Z,5.81
2023-04-19T19:26:52.718Z,5.78
2023-04-19T19:29:52.705Z,5.8
2023-04-19T19:32:52.741Z,5.79
2023-04-19T19:35:52.714Z,5.82
2023-04-19T19:38:52.725Z,5.78
2023-04-19T19:44:52.726Z,5.78
2023-04-19T19:47:52.845Z,5.79
2023-04-19T19:53:52.756Z,5.8
2023-04-19T19:57:29.189Z,5.77
2023-04-19T19:59:56.180Z,5.75
2023-04-19T20:02:55.784Z,5.74
2023-04-19T20:05:52.818Z,5.73
2023-04-19T20:08:52.934Z,5.7
2023-04-19T20:11:52.781Z,5.66
2023-04-19T20:14:52.781Z,5.6
2023-04-19T20:17:52.825Z,5.57
2023-04-19T20:20:52.796Z,5.52
2023-04-19T20:23:52.782Z,5.55
2023-04-19T20:26:52.793Z,5.52
2023-04-19T20:29:52.800Z,5.49
2023-04-19T20:32:52.859Z,5.46
2023-04-19T20:35:52.809Z,5.4
2023-04-19T20:38:52.818Z,5.45
2023-04-19T20:41:52.825Z,5.39
2023-04-19T20:44:52.830Z,5.42
2023-04-19T20:47:52.873Z,5.4
2023-04-19T20:50:52.844Z,5.41
2023-04-19T20:53:52.848Z,5.44
2023-04-19T20:56:52.855Z,5.44
2023-04-19T20:59:52.872Z,5.47
2023-04-19T21:02:53.034Z,5.47
2023-04-19T21:05:52.885Z,5.46
2023-04-19T21:08:52.870Z,5.5
2023-04-19T21:11:52.893Z,5.5
2023-04-19T21:14:52.996Z,5.53
2023-04-19T21:17:52.925Z,5.57
2023-04-19T21:20:52.918Z,5.58
2023-04-19T21:23:52.918Z,5.59
2023-04-19T21:26:52.926Z,5.62
2023-04-19T21:29:52.942Z,5.61
2023-04-19T21:32:52.995Z,5.63
2023-04-19T21:35:52.951Z,5.67
2023-04-19T21:38:52.956Z,5.66
2023-04-19T21:41:52.969Z,5.69
2023-04-19T21:44:52.981Z,5.72
2023-04-19T21:47:53.002Z,5.73
2023-04-19T21:50:52.989Z,5.76
2023-04-19T21:53:52.996Z,5.77
2023-04-19T21:56:53.009Z,5.78
2023-04-19T21:59:53.020Z,5.85
2023-04-19T22:02:53.142Z,5.84
2023-04-19T22:05:53.029Z,5.85
2023-04-19T22:08:53.036Z,5.84
2023-04-19T22:11:53.047Z,5.86
2023-04-19T22:14:53.057Z,5.9
2023-04-19T22:17:53.122Z,5.9
2023-04-19T22:20:53.074Z,5.92
2023-04-19T22:23:53.074Z,5.89
2023-04-19T22:26:53.146Z,5.91
2023-04-19T22:29:53.101Z,5.89
2023-04-19T22:32:53.139Z,5.97
2023-04-19T22:35:53.109Z,5.92
2023-04-19T22:38:53.124Z,5.93
2023-04-19T22:41:53.123Z,5.87
2023-04-19T22:44:53.145Z,5.84
2023-04-19T22:47:53.193Z,5.81
2023-04-19T22:50:53.145Z,5.83
2023-04-19T22:53:53.150Z,5.78
2023-04-19T22:56:53.156Z,5.75
2023-04-19T22:59:53.166Z,5.78
2023-04-19T23:02:53.246Z,5.73
2023-04-19T23:05:53.181Z,5.77
2023-04-19T23:08:53.191Z,5.77
2023-04-19T23:11:53.192Z,5.78
2023-04-19T23:14:53.210Z,5.81
2023-04-19T23:17:53.213Z,5.83
2023-04-19T23:20:53.211Z,5.81
2023-04-19T23:23:53.219Z,5.84
2023-04-19T23:26:53.214Z,5.83
2023-04-19T23:29:53.216Z,5.83
2023-04-19T23:32:53.249Z,5.84
2023-04-19T23:35:53.235Z,5.88
2023-04-19T23:38:53.246Z,5.9
2023-04-19T23:41:53.243Z,5.9
2023-04-19T23:44:53.251Z,5.9
2023-04-19T23:47:53.301Z,5.96
2023-04-19T23:50:53.258Z,5.96
2023-04-19T23:53:53.262Z,5.96
2023-04-19T23:56:53.324Z,6
2023-04-19T23:59:53.288Z,6
